Time;durP1;ratioP1;P1;durP2;ratioP2;P2;SDS_P1;SDS_P2;PMS_P1;PMS_P2;Temp;Humidity;BMP_temperature;BMP_pressure;BME280_temperature;BME280_humidity;BME280_pressure;Samples;Min_cycle;Max_cycle;Signal;HPM_P1;HPM_P2
2022/01/23 00:00:51;;;;;;;;;63.40;41.60;;;;;6.26;68.39;102985.75;4844651;29;45398;-49
2022/01/23 00:03:18;;;;;;;;;43.80;36.40;;;;;6.23;67.83;102985.97;4844100;29;45347;-52
2022/01/23 00:05:45;;;;;;;;;51.40;42.40;;;;;6.30;68.25;102992.66;4844470;29;45443;-50
2022/01/23 00:08:13;;;;;;;;;41.60;34.00;;;;;6.29;67.49;102993.66;4844324;29;47076;-54
2022/01/23 00:10:39;;;;;;;;;51.60;42.00;;;;;6.11;67.72;102971.50;4875575;29;45373;-50
2022/01/23 00:18:33;;;;;;;;;55.80;42.20;;;;;6.28;67.59;102983.75;4881132;29;45273;-49
2022/01/23 00:20:58;;;;;;;;;50.75;40.00;;;;;6.20;68.14;102958.97;4881321;29;45356;-50
2022/01/23 00:31:24;;;;;;;;;55.60;41.00;;;;;6.31;67.60;102969.88;4881367;29;45450;-49
2022/01/23 00:33:54;;;;;;;;;58.80;43.00;;;;;6.41;67.45;102982.72;4881114;29;45535;-49
2022/01/23 00:36:19;;;;;;;;;39.80;35.00;;;;;6.36;68.13;102975.78;4880186;29;45563;-49
2022/01/23 00:38:45;;;;;;;;;47.25;39.25;;;;;6.34;68.51;102966.88;4863337;29;46320;-49
2022/01/23 00:41:10;;;;;;;;;46.75;33.75;;;;;6.40;67.73;102972.81;4864181;29;45461;-50
2022/01/23 00:43:40;;;;;;;;;43.25;35.00;;;;;6.40;68.28;102970.06;4881093;29;45381;-52
2022/01/23 00:49:02;;;;;;;;;43.00;37.40;;;;;6.44;67.79;102971.53;4880739;29;46607;-50
2022/01/23 00:51:29;;;;;;;;;25.60;25.20;;;;;6.43;67.44;102967.06;4881049;29;45387;-48
2022/01/23 00:53:56;;;;;;;;;56.20;35.40;;;;;6.41;67.74;102964.47;4863782;29;45458;-48
2022/01/23 00:56:21;;;;;;;;;53.00;42.00;;;;;6.37;68.13;102960.28;4881226;29;45449;-48
2022/01/23 00:58:47;;;;;;;;;46.50;39.75;;;;;6.31;68.38;102967.13;4881411;29;45809;-49
2022/01/23 01:01:13;;;;;;;;;43.00;30.25;;;;;6.33;68.06;102962.41;4880872;29;45407;-51
2022/01/23 01:03:38;;;;;;;;;52.80;44.20;;;;;6.36;68.22;102967.59;4880788;29;45289;-50
2022/01/23 01:06:04;;;;;;;;;53.00;43.75;;;;;6.35;68.40;102951.38;4881315;29;45254;-48
2022/01/23 01:08:30;;;;;;;;;47.50;39.75;;;;;6.30;68.30;102954.47;4864138;29;45557;-53
2022/01/23 01:11:13;;;;;;;;;50.00;40.75;;;;;5.73;68.67;102864.66;4862484;29;45443;-49
2022/01/23 01:14:20;;;;;;;;;57.40;45.40;;;;;6.27;68.83;102943.84;4847482;29;45572;-47
2022/01/23 01:16:58;;;;;;;;;64.20;48.00;;;;;6.13;68.62;102914.97;4862207;29;45439;-49
2022/01/23 01:30:35;;;;;;;;;57.20;40.60;;;;;6.34;68.05;102949.63;4861375;29;45431;-48
2022/01/23 01:38:10;;;;;;;;;52.25;43.25;;;;;6.30;68.25;102948.16;4861991;29;45351;-49
2022/01/23 01:40:36;;;;;;;;;53.00;43.50;;;;;6.33;68.49;102954.22;4861728;29;46610;-47
2022/01/23 01:43:02;;;;;;;;;45.40;36.20;;;;;6.32;67.84;102947.03;4861900;29;45460;-50
2022/01/23 01:45:28;;;;;;;;;55.00;39.75;;;;;6.37;67.97;102952.09;4844837;29;45509;-50
2022/01/23 01:47:56;;;;;;;;;49.20;39.00;;;;;6.22;68.61;102932.44;4861894;29;45818;-52
2022/01/23 01:50:22;;;;;;;;;47.60;35.20;;;;;6.29;67.55;102943.72;4843936;29;45898;-49
2022/01/23 01:52:48;;;;;;;;;51.50;40.00;;;;;6.35;67.52;102956.84;4861432;29;45293;-51
2022/01/23 01:55:19;;;;;;;;;51.75;38.25;;;;;6.29;68.07;102944.56;4861197;29;45346;-49
2022/01/23 01:57:52;;;;;;;;;45.00;33.40;;;;;6.19;67.36;102944.47;4861523;29;45576;-50
2022/01/23 02:08:32;;;;;;;;;47.20;37.00;;;;;6.26;68.01;102950.28;4803265;29;45558;-53
2022/01/23 02:11:08;;;;;;;;;48.25;40.50;;;;;6.31;68.32;102950.78;4862344;29;46019;-50
2022/01/23 02:13:44;;;;;;;;;46.80;38.40;;;;;6.29;68.34;102947.28;4879238;29;45431;-50
2022/01/23 02:16:41;;;;;;;;;46.40;37.20;;;;;6.10;68.39;102921.56;4879570;29;45430;-52
2022/01/23 02:24:59;;;;;;;;;35.80;31.20;;;;;5.97;69.01;102937.19;4879435;29;45854;-50
2022/01/23 02:54:40;;;;;;;;;31.80;30.20;;;;;6.17;67.09;102915.59;4879885;29;45730;-49
2022/01/23 02:57:06;;;;;;;;;35.00;25.20;;;;;6.10;67.36;102905.19;4879219;29;45422;-49
2022/01/23 02:59:36;;;;;;;;;32.20;29.60;;;;;6.10;67.37;102902.47;4879454;29;45318;-53
2022/01/23 03:02:10;;;;;;;;;30.40;27.60;;;;;6.17;66.93;102897.38;4879131;29;45676;-49
2022/01/23 03:04:39;;;;;;;;;33.20;25.20;;;;;6.18;67.28;102895.50;4881027;29;45942;-50
2022/01/23 03:14:48;;;;;;;;;32.80;29.40;;;;;6.07;66.66;102886.38;4863434;29;45860;-53
2022/01/23 03:25:57;;;;;;;;;42.40;29.00;;;;;6.00;67.59;102890.59;4863121;29;45848;-51
2022/01/23 03:28:22;;;;;;;;;37.80;29.20;;;;;6.07;67.21;102888.22;4862702;29;45495;-49
2022/01/23 03:33:32;;;;;;;;;44.20;32.20;;;;;6.17;67.88;102886.47;4863457;29;45323;-49
2022/01/23 03:35:57;;;;;;;;;39.40;33.60;;;;;6.08;66.70;102892.69;4861930;29;47450;-48
2022/01/23 03:38:23;;;;;;;;;39.25;31.25;;;;;5.82;68.16;102850.25;4863168;29;45442;-49
2022/01/23 03:40:48;;;;;;;;;40.75;36.75;;;;;6.00;67.21;102874.25;4817881;29;45611;-50
2022/01/23 03:43:15;;;;;;;;;36.25;30.00;;;;;6.05;67.65;102876.59;4863513;29;45351;-52
2022/01/23 03:50:39;;;;;;;;;34.60;29.40;;;;;5.85;68.19;102884.56;4862835;29;45478;-52
2022/01/23 03:53:07;;;;;;;;;41.00;29.20;;;;;5.81;68.07;102859.41;4846393;29;45561;-50
2022/01/23 03:55:33;;;;;;;;;34.60;28.40;;;;;6.00;67.36;102878.81;4862510;29;45810;-50
2022/01/23 03:57:58;;;;;;;;;33.50;28.25;;;;;6.02;67.94;102874.13;4862840;29;45387;-54
2022/01/23 04:00:24;;;;;;;;;35.25;28.50;;;;;6.01;67.54;102872.34;4862879;29;45412;-48
2022/01/23 04:02:50;;;;;;;;;38.75;33.00;;;;;5.74;67.24;102838.25;4862643;29;45373;-50
2022/01/23 04:05:15;;;;;;;;;40.50;34.25;;;;;5.95;68.09;102865.56;4862551;29;45376;-52
2022/01/23 04:07:41;;;;;;;;;35.00;31.00;;;;;6.04;67.14;102870.25;4862572;29;45444;-51
2022/01/23 04:10:09;;;;;;;;;32.50;28.00;;;;;6.02;67.74;102866.81;4779715;29;45405;-50
2022/01/23 04:12:48;;;;;;;;;41.80;33.80;;;;;6.06;67.61;102867.41;4842824;29;45626;-49
2022/01/23 04:20:40;;;;;;;;;40.40;29.00;;;;;5.74;68.35;102825.50;4862650;29;45858;-48
2022/01/23 04:34:31;;;;;;;;;31.20;25.00;;;;;5.99;67.40;102879.81;4848890;29;45404;-50
2022/01/23 04:45:48;;;;;;;;;34.40;27.80;;;;;6.01;66.92;102875.97;4860581;29;45416;-49
2022/01/23 05:06:56;;;;;;;;;37.40;28.00;;;;;6.01;67.27;102870.50;4862163;29;45363;-51
2022/01/23 05:09:22;;;;;;;;;32.80;25.40;;;;;6.02;66.88;102885.03;4862034;29;46604;-52
2022/01/23 05:12:05;;;;;;;;;40.25;32.75;;;;;5.60;67.96;102836.69;4860456;29;45697;-51
2022/01/23 05:14:37;;;;;;;;;40.00;26.80;;;;;5.85;67.83;102873.66;4843133;29;45469;-51
2022/01/23 05:17:14;;;;;;;;;32.20;25.60;;;;;5.24;68.07;102785.97;4843247;29;45480;-50
2022/01/23 05:19:40;;;;;;;;;42.80;29.40;;;;;5.92;67.18;102876.75;4841801;29;45985;-49
2022/01/23 05:24:36;;;;;;;;;36.75;28.75;;;;;5.94;68.10;102881.03;4826212;29;45245;-50
2022/01/23 05:27:04;;;;;;;;;30.40;26.20;;;;;5.87;67.40;102874.38;4843308;29;45503;-50
2022/01/23 05:29:30;;;;;;;;;37.40;34.60;;;;;5.91;67.99;102875.00;4842855;29;45519;-51
2022/01/23 05:31:56;;;;;;;;;42.25;35.25;;;;;5.86;68.09;102877.25;4826432;29;45578;-50
2022/01/23 05:34:22;;;;;;;;;45.25;32.00;;;;;5.63;68.17;102848.19;4843312;29;45417;-48
2022/01/23 05:36:49;;;;;;;;;43.20;34.20;;;;;5.88;68.55;102886.16;4842998;29;45372;-49
2022/01/23 05:39:18;;;;;;;;;39.60;34.80;;;;;5.89;68.02;102885.16;4810951;29;45600;-49
2022/01/23 05:41:43;;;;;;;;;41.80;28.80;;;;;5.94;67.62;102883.78;4842210;29;45758;-50
2022/01/23 05:44:09;;;;;;;;;40.25;31.50;;;;;5.94;67.59;102888.38;4826365;29;45452;-47
2022/01/23 05:46:34;;;;;;;;;36.75;29.00;;;;;5.94;68.00;102886.50;4843340;29;45376;-50
2022/01/23 05:49:00;;;;;;;;;35.50;25.25;;;;;5.98;67.21;102884.41;4842217;29;46548;-50
2022/01/23 05:51:25;;;;;;;;;46.75;31.00;;;;;5.76;67.49;102847.19;4842604;29;45361;-48
2022/01/23 05:53:51;;;;;;;;;33.00;26.00;;;;;5.82;67.81;102858.41;4841066;29;45375;-49
2022/01/23 05:56:16;;;;;;;;;29.50;24.25;;;;;5.97;67.13;102888.09;4826379;29;45621;-51
2022/01/23 05:58:43;;;;;;;;;40.00;30.75;;;;;5.29;67.27;102772.84;4825732;29;45653;-51
2022/01/23 06:01:08;;;;;;;;;42.00;28.40;;;;;5.88;66.68;102867.97;4842377;29;45285;-54
2022/01/23 06:03:34;;;;;;;;;35.50;29.75;;;;;5.97;67.78;102883.53;4825930;29;45298;-48
2022/01/23 06:05:59;;;;;;;;;39.00;29.75;;;;;6.00;66.93;102885.13;4810621;29;45259;-49
2022/01/23 06:08:25;;;;;;;;;32.00;25.00;;;;;5.98;67.23;102884.41;4842147;29;46050;-50
2022/01/23 06:10:57;;;;;;;;;32.75;31.25;;;;;5.91;66.66;102892.22;4842246;29;45218;-50
2022/01/23 06:13:24;;;;;;;;;39.20;27.40;;;;;5.72;67.83;102870.22;4864401;29;45296;-48
2022/01/23 06:15:50;;;;;;;;;27.20;22.20;;;;;5.83;68.15;102894.72;4879886;29;45640;-49
2022/01/23 06:18:15;;;;;;;;;32.00;25.25;;;;;5.78;68.30;102886.94;4851688;28;45837;-50
2022/01/23 06:20:41;;;;;;;;;29.50;24.75;;;;;5.83;67.55;102898.31;4873187;29;45360;-57
2022/01/23 06:23:06;;;;;;;;;43.25;28.75;;;;;5.87;68.09;102892.63;4879270;29;45466;-51
2022/01/23 06:25:34;;;;;;;;;25.75;21.00;;;;;5.72;67.69;102862.94;4878053;29;45352;-48
2022/01/23 06:28:00;;;;;;;;;30.40;28.00;;;;;5.70;67.91;102857.59;4847426;29;47705;-49
2022/01/23 06:30:26;;;;;;;;;25.20;23.20;;;;;5.89;67.70;102896.94;4878096;29;45436;-48
2022/01/23 06:32:51;;;;;;;;;34.00;27.50;;;;;5.81;67.17;102883.94;4862585;29;45512;-50
2022/01/23 06:35:17;;;;;;;;;30.50;26.25;;;;;5.68;68.09;102894.13;4879847;29;45358;-51
2022/01/23 06:37:42;;;;;;;;;31.25;21.75;;;;;5.54;67.99;102859.84;4877855;29;45807;-48
2022/01/23 06:40:08;;;;;;;;;30.75;22.25;;;;;5.67;68.53;102884.22;4879259;29;45389;-50
2022/01/23 06:42:34;;;;;;;;;30.00;26.00;;;;;5.70;68.21;102886.69;4879334;29;45456;-50
2022/01/23 06:45:00;;;;;;;;;27.25;21.25;;;;;5.74;68.01;102888.19;4879883;29;45189;-49
2022/01/23 06:47:25;;;;;;;;;23.50;22.75;;;;;5.80;67.47;102897.69;4878801;29;45277;-51
2022/01/23 06:49:51;;;;;;;;;25.00;18.50;;;;;5.79;67.66;102875.03;4858901;29;45349;-49
2022/01/23 06:52:16;;;;;;;;;25.25;18.50;;;;;5.89;67.23;102887.88;4859315;29;45524;-51
2022/01/23 06:54:42;;;;;;;;;21.25;19.75;;;;;5.72;67.59;102868.38;4875043;29;45619;-54
2022/01/23 06:57:08;;;;;;;;;22.50;16.00;;;;;5.70;67.07;102886.69;4860126;29;45575;-50
2022/01/23 06:59:33;;;;;;;;;32.25;21.75;;;;;5.77;67.58;102893.34;4858821;29;45550;-48
2022/01/23 07:01:59;;;;;;;;;19.00;17.00;;;;;5.64;67.48;102869.00;4860706;29;45523;-54
2022/01/23 07:04:24;;;;;;;;;15.75;13.00;;;;;5.81;67.53;102892.13;4860209;29;45587;-50
2022/01/23 07:06:51;;;;;;;;;25.00;20.75;;;;;5.76;67.90;102905.25;4860091;29;45453;-49
2022/01/23 07:09:17;;;;;;;;;22.20;20.60;;;;;5.75;67.08;102895.34;4860357;29;45469;-48
2022/01/23 07:11:44;;;;;;;;;20.40;15.60;;;;;5.72;67.18;102901.06;4860342;29;45388;-49
2022/01/23 07:14:10;;;;;;;;;17.00;17.00;;;;;5.69;66.35;102904.91;4860171;29;45407;-49
2022/01/23 07:16:35;;;;;;;;;20.25;18.25;;;;;5.74;67.64;102899.09;4859995;29;45340;-50
2022/01/23 07:19:01;;;;;;;;;17.25;14.00;;;;;5.79;67.33;102901.41;4859975;29;45327;-49
2022/01/23 07:21:27;;;;;;;;;18.00;15.00;;;;;5.78;67.27;102903.28;4860392;29;45194;-50
2022/01/23 07:23:52;;;;;;;;;17.75;13.25;;;;;5.77;66.34;102885.19;4860283;29;45661;-53
2022/01/23 07:26:20;;;;;;;;;20.50;14.00;;;;;5.61;66.77;102857.50;4860171;29;46075;-50
2022/01/23 07:28:46;;;;;;;;;17.00;15.00;;;;;5.86;67.52;102901.78;4859631;29;45386;-50
2022/01/23 07:31:20;;;;;;;;;21.60;16.60;;;;;5.85;67.10;102900.91;4860277;29;45382;-52
2022/01/23 07:33:45;;;;;;;;;19.00;16.80;;;;;5.88;67.30;102914.31;4859911;29;45345;-54
2022/01/23 07:36:11;;;;;;;;;26.25;19.75;;;;;5.81;66.48;102900.31;4859886;29;45582;-51
2022/01/23 07:38:37;;;;;;;;;25.50;20.75;;;;;5.72;67.50;102895.63;4831024;29;45869;-49
2022/01/23 07:41:02;;;;;;;;;22.25;17.75;;;;;5.70;67.41;102898.47;4859643;29;45444;-48
2022/01/23 07:43:28;;;;;;;;;23.50;20.25;;;;;5.76;67.21;102898.97;4858625;29;45358;-50
2022/01/23 07:45:53;;;;;;;;;19.75;19.75;;;;;5.77;67.26;102901.53;4859886;29;45627;-49
2022/01/23 07:48:19;;;;;;;;;19.00;18.25;;;;;5.78;67.75;102903.28;4861429;29;45374;-50
2022/01/23 07:50:44;;;;;;;;;20.50;16.75;;;;;5.74;67.20;102893.63;4877333;29;45309;-49
2022/01/23 07:53:10;;;;;;;;;21.00;19.75;;;;;5.76;67.35;102898.97;4881702;29;45622;-49
2022/01/23 07:55:35;;;;;;;;;25.50;22.75;;;;;5.67;66.82;102897.84;4881724;29;46548;-49
2022/01/23 07:58:05;;;;;;;;;17.50;14.25;;;;;5.56;67.37;102877.78;4824554;29;45621;-48
2022/01/23 08:00:33;;;;;;;;;20.60;17.40;;;;;5.67;66.33;102906.88;4872736;29;45500;-48
2022/01/23 08:02:58;;;;;;;;;18.40;14.60;;;;;5.46;66.72;102885.00;4865159;29;45503;-50
2022/01/23 08:05:24;;;;;;;;;19.25;13.75;;;;;5.59;66.23;102913.97;4879594;29;48539;-49
2022/01/23 08:07:49;;;;;;;;;17.25;14.50;;;;;5.62;67.14;102921.88;4864541;29;45459;-47
2022/01/23 08:10:16;;;;;;;;;19.50;15.50;;;;;5.62;66.98;102924.59;4881857;29;45424;-52
2022/01/23 08:12:41;;;;;;;;;15.20;15.20;;;;;5.69;66.34;102932.16;4881670;29;45284;-51
2022/01/23 08:15:07;;;;;;;;;26.00;17.75;;;;;5.74;66.51;102920.88;4881395;29;46194;-53
2022/01/23 08:17:34;;;;;;;;;20.00;15.20;;;;;5.75;66.38;102933.50;4857100;29;45650;-55
2022/01/23 08:20:01;;;;;;;;;17.40;13.20;;;;;5.74;66.42;102930.91;4879043;29;45436;-52
2022/01/23 08:22:28;;;;;;;;;16.00;16.00;;;;;5.79;66.11;102924.09;4881447;29;45446;-50
2022/01/23 08:24:54;;;;;;;;;25.80;20.60;;;;;5.81;66.23;102930.28;4848886;29;45477;-50
2022/01/23 08:27:24;;;;;;;;;18.00;14.60;;;;;5.86;66.25;102934.50;4860427;29;45427;-51
2022/01/23 08:29:49;;;;;;;;;14.60;14.60;;;;;5.66;65.96;102899.69;4861478;29;45437;-54
2022/01/23 08:32:15;;;;;;;;;24.50;20.25;;;;;5.86;65.80;102932.63;4850741;29;45517;-51
2022/01/23 08:34:40;;;;;;;;;14.50;13.25;;;;;5.90;66.67;102928.66;4808535;29;45900;-52
2022/01/23 08:37:07;;;;;;;;;23.50;20.00;;;;;5.95;66.98;102936.44;4858621;29;45595;-50
2022/01/23 08:39:35;;;;;;;;;20.80;20.80;;;;;5.88;66.33;102944.28;4845347;28;45849;-49
2022/01/23 08:42:05;;;;;;;;;26.40;19.40;;;;;5.59;66.58;102892.19;4862082;29;45557;-50
2022/01/23 08:44:31;;;;;;;;;23.60;17.40;;;;;5.82;66.21;102931.16;4858626;29;46900;-52
2022/01/23 08:46:57;;;;;;;;;27.40;21.60;;;;;5.83;66.33;102936.47;4861799;29;45421;-52
2022/01/23 08:49:23;;;;;;;;;25.00;22.25;;;;;5.90;66.39;102944.13;4861683;29;45371;-50
2022/01/23 08:51:49;;;;;;;;;28.00;28.00;;;;;5.84;66.37;102934.63;4844901;29;45419;-50
2022/01/23 08:54:14;;;;;;;;;24.60;20.60;;;;;5.86;66.60;102934.50;4860425;29;47652;-52
2022/01/23 08:56:40;;;;;;;;;20.25;17.00;;;;;5.89;66.46;102935.09;4830112;29;45404;-49
2022/01/23 08:59:06;;;;;;;;;25.00;21.00;;;;;5.91;66.78;102943.13;4859955;29;45369;-53
2022/01/23 09:01:33;;;;;;;;;23.25;22.25;;;;;5.81;66.39;102938.47;4862216;29;45312;-52
2022/01/23 09:03:58;;;;;;;;;19.20;14.40;;;;;5.86;66.14;102939.94;4860942;29;46558;-49
2022/01/23 09:06:24;;;;;;;;;18.25;16.25;;;;;5.86;66.33;102942.66;4860690;29;45469;-53
2022/01/23 09:08:51;;;;;;;;;23.25;18.25;;;;;5.89;66.02;102936.94;4861158;29;45497;-51
2022/01/23 09:14:07;;;;;;;;;27.60;16.40;;;;;5.82;65.96;102945.63;4866714;29;45381;-51
2022/01/23 09:16:34;;;;;;;;;17.60;13.40;;;;;5.80;66.43;102936.72;4872230;29;45293;-52
2022/01/23 09:18:59;;;;;;;;;17.20;16.00;;;;;5.83;66.40;102947.34;4834431;29;46076;-50
2022/01/23 09:21:25;;;;;;;;;26.00;19.00;;;;;5.88;66.05;102932.50;4840737;29;45432;-54
2022/01/23 09:23:50;;;;;;;;;21.25;16.25;;;;;5.82;66.30;102940.19;4845337;29;47879;-51
2022/01/23 09:26:18;;;;;;;;;22.00;18.50;;;;;5.67;65.92;102936.00;4858985;29;45866;-49
2022/01/23 09:28:45;;;;;;;;;26.60;20.80;;;;;5.73;66.97;102942.78;4856865;29;45785;-50
2022/01/23 09:31:13;;;;;;;;;19.60;16.60;;;;;5.77;66.43;102950.59;4856618;29;45666;-51
2022/01/23 09:33:38;;;;;;;;;20.20;16.40;;;;;5.68;66.25;102933.16;4842212;29;47120;-51
2022/01/23 09:36:04;;;;;;;;;16.50;14.25;;;;;5.75;66.54;102949.84;4862733;29;45833;-51
2022/01/23 09:38:29;;;;;;;;;20.25;16.75;;;;;5.68;66.77;102941.34;4858614;29;45495;-50
2022/01/23 09:40:57;;;;;;;;;23.75;16.25;;;;;5.77;66.82;102957.91;4832717;29;46034;-53
2022/01/23 09:43:23;;;;;;;;;22.00;19.60;;;;;5.81;67.30;102956.66;4840509;29;47130;-54
2022/01/23 09:45:50;;;;;;;;;31.20;24.40;;;;;5.83;66.36;102952.81;4841107;29;45496;-50
2022/01/23 09:48:19;;;;;;;;;20.40;15.80;;;;;5.81;66.28;102952.09;4839447;29;46185;-52
2022/01/23 09:50:48;;;;;;;;;20.40;14.20;;;;;5.80;66.26;102957.66;4857526;29;45865;-53
2022/01/23 09:53:14;;;;;;;;;16.00;10.00;;;;;5.74;65.64;102944.53;4848447;29;45867;-50
2022/01/23 09:55:40;;;;;;;;;22.25;16.25;;;;;5.62;66.77;102950.00;4875868;29;45668;-51
2022/01/23 09:58:06;;;;;;;;;18.40;13.80;;;;;5.65;66.13;102951.63;4846116;29;45580;-51
2022/01/23 10:00:32;;;;;;;;;16.50;13.00;;;;;5.40;66.16;102890.94;4857405;29;45650;-51
2022/01/23 10:02:58;;;;;;;;;15.80;13.00;;;;;5.67;65.97;102938.72;4856089;29;46384;-53
2022/01/23 10:05:24;;;;;;;;;21.00;15.50;;;;;5.61;65.91;102918.28;4855947;29;45886;-51
2022/01/23 10:07:49;;;;;;;;;17.25;14.75;;;;;5.66;65.85;102937.84;4858860;29;45532;-51
2022/01/23 10:10:21;;;;;;;;;13.50;12.50;;;;;5.74;65.97;102952.69;4876485;29;45510;-50
2022/01/23 10:12:59;;;;;;;;;16.00;13.40;;;;;5.68;66.01;102935.88;4873956;29;45850;-53
2022/01/23 10:15:26;;;;;;;;;18.80;14.20;;;;;5.57;66.45;102925.84;4838568;29;45515;-54
2022/01/23 10:17:53;;;;;;;;;17.40;13.60;;;;;5.76;65.40;102958.91;4858488;29;45539;-51
2022/01/23 10:20:18;;;;;;;;;21.20;17.20;;;;;5.56;66.43;102928.72;4835743;29;45567;-50
2022/01/23 10:22:46;;;;;;;;;13.25;13.00;;;;;5.77;66.63;102961.50;4859752;29;46265;-52
2022/01/23 10:25:20;;;;;;;;;14.00;12.80;;;;;5.78;66.19;102965.09;4843696;29;45373;-50
2022/01/23 10:28:03;;;;;;;;;15.40;12.80;;;;;5.68;65.84;102946.78;4861172;29;45321;-52
2022/01/23 10:30:39;;;;;;;;;17.00;13.80;;;;;5.82;66.43;102959.25;4857868;29;45413;-50
2022/01/23 10:33:15;;;;;;;;;14.40;13.00;;;;;5.86;66.42;102956.31;4879646;29;46360;-51
2022/01/23 10:35:56;;;;;;;;;13.40;12.40;;;;;5.89;66.46;102961.47;4872711;29;45451;-54
2022/01/23 10:38:23;;;;;;;;;17.00;16.40;;;;;5.89;66.66;102961.47;4846190;29;45476;-52
2022/01/23 10:40:54;;;;;;;;;13.60;12.80;;;;;5.89;66.02;102951.47;4816581;29;45582;-53
2022/01/23 10:48:36;;;;;;;;;21.40;13.80;;;;;5.78;66.67;102949.63;4857043;29;45535;-53
2022/01/23 10:51:25;;;;;;;;;12.80;12.00;;;;;5.76;66.76;102940.69;4856555;29;45830;-54
2022/01/23 10:54:00;;;;;;;;;13.40;12.40;;;;;5.80;66.10;102930.41;4855271;29;45588;-53
2022/01/23 10:56:27;;;;;;;;;15.80;12.40;;;;;5.65;66.26;102910.75;4860618;29;45452;-53
2022/01/23 10:59:03;;;;;;;;;14.40;11.20;;;;;5.80;66.47;102939.44;4826987;29;45602;-52
2022/01/23 11:01:29;;;;;;;;;19.20;18.20;;;;;5.67;65.77;102911.47;4858593;29;45449;-50
2022/01/23 11:04:08;;;;;;;;;18.25;18.00;;;;;5.86;66.75;102931.78;4875369;29;47726;-49
2022/01/23 11:06:50;;;;;;;;;21.40;15.80;;;;;5.91;65.29;102926.78;4863106;29;46079;-52
2022/01/23 11:09:15;;;;;;;;;17.80;15.80;;;;;5.94;66.04;102932.84;4846265;29;45483;-50
2022/01/23 11:11:49;;;;;;;;;13.50;12.50;;;;;5.83;66.22;102936.47;4856314;29;45307;-51
2022/01/23 11:19:46;;;;;;;;;12.40;10.00;;;;;5.95;65.22;102926.41;4833882;29;45490;-56
2022/01/23 11:22:18;;;;;;;;;14.40;13.60;;;;;5.96;65.86;102921.81;4839309;29;45608;-50
2022/01/23 11:24:47;;;;;;;;;21.20;19.80;;;;;5.87;65.05;102909.81;4860632;29;47011;-52
2022/01/23 11:27:23;;;;;;;;;12.00;9.40;;;;;5.67;65.64;102865.16;4861840;29;45925;-52
2022/01/23 11:30:09;;;;;;;;;20.80;17.80;;;;;5.96;65.40;102909.06;4856487;29;45913;-55
2022/01/23 11:32:38;;;;;;;;;15.60;13.40;;;;;6.02;65.35;102902.25;4862676;29;45658;-53
2022/01/23 11:35:19;;;;;;;;;18.20;15.20;;;;;5.41;66.02;102800.06;4857648;29;48270;-53
2022/01/23 11:37:51;;;;;;;;;20.40;19.80;;;;;6.06;65.56;102895.56;4867388;28;45576;-56
2022/01/23 11:40:34;;;;;;;;;16.00;11.60;;;;;6.07;64.98;102899.13;4806460;29;45704;-53
2022/01/23 11:57:02;;;;;;;;;20.50;19.00;;;;;5.95;65.82;102884.66;4841934;29;45747;-54
2022/01/23 11:59:28;;;;;;;;;16.00;15.80;;;;;5.72;65.29;102841.13;4864488;29;45441;-51
2022/01/23 12:02:12;;;;;;;;;18.40;15.20;;;;;5.81;65.44;102844.91;4794631;29;45798;-53
2022/01/23 12:05:18;;;;;;;;;19.60;14.40;;;;;6.05;65.68;102863.84;4863096;29;45470;-53
2022/01/23 12:07:45;;;;;;;;;17.00;12.60;;;;;6.02;64.44;102875.00;4856583;29;46693;-51
2022/01/23 12:10:26;;;;;;;;;15.20;14.00;;;;;5.76;64.81;102830.84;4859024;29;45497;-51
2022/01/23 12:18:51;;;;;;;;;16.00;14.00;;;;;5.89;64.96;102847.00;4843056;29;45920;-51
2022/01/23 12:21:30;;;;;;;;;9.60;9.60;;;;;5.97;65.02;102852.66;4827076;29;45504;-50
2022/01/23 12:24:05;;;;;;;;;12.60;12.60;;;;;5.93;64.37;102857.50;4827660;29;45335;-52
2022/01/23 12:26:31;;;;;;;;;17.40;13.40;;;;;5.94;64.86;102851.06;4844325;29;45334;-51
2022/01/23 12:29:12;;;;;;;;;12.50;10.00;;;;;5.81;64.92;102821.25;4812709;29;45475;-49
2022/01/23 12:31:38;;;;;;;;;12.60;12.60;;;;;5.98;64.84;102832.63;4813156;29;45496;-50
2022/01/23 12:34:03;;;;;;;;;15.50;10.50;;;;;6.08;65.05;102841.75;4827190;29;45342;-51
2022/01/23 12:36:37;;;;;;;;;14.00;10.00;;;;;6.03;64.52;102830.38;4844246;29;45632;-50
2022/01/23 12:39:08;;;;;;;;;16.20;13.00;;;;;6.02;64.12;102842.28;4843856;29;46688;-50
2022/01/23 12:41:53;;;;;;;;;14.60;12.60;;;;;6.03;64.64;102832.25;4844241;29;45507;-51
2022/01/23 12:44:25;;;;;;;;;13.60;10.60;;;;;5.86;64.28;102804.53;4813701;29;45999;-51
2022/01/23 12:46:52;;;;;;;;;17.40;12.40;;;;;5.76;64.05;102790.81;4832683;29;45800;-49
2022/01/23 12:49:19;;;;;;;;;17.00;13.40;;;;;6.02;65.11;102828.66;4854616;29;45804;-49
2022/01/23 12:51:46;;;;;;;;;14.80;14.00;;;;;6.03;64.90;102810.44;4856675;29;45780;-49
2022/01/23 12:54:15;;;;;;;;;18.40;17.00;;;;;6.00;64.38;102797.03;4858071;29;45410;-50
2022/01/23 12:56:43;;;;;;;;;18.00;13.80;;;;;6.03;64.84;102796.81;4866654;29;45747;-49
2022/01/23 12:59:11;;;;;;;;;21.80;18.20;;;;;6.06;64.02;102802.00;4860020;29;46646;-51
2022/01/23 13:01:40;;;;;;;;;21.00;19.60;;;;;5.94;64.97;102774.75;4876276;29;45566;-49
2022/01/23 13:04:06;;;;;;;;;18.40;16.00;;;;;5.77;64.43;102753.53;4841951;29;45404;-50
2022/01/23 13:06:34;;;;;;;;;25.20;22.60;;;;;5.79;65.47;102763.31;4858056;29;45675;-50
2022/01/23 13:14:59;;;;;;;;;20.80;19.60;;;;;5.98;65.40;102780.81;4850497;29;45832;-49
2022/01/23 13:17:54;;;;;;;;;26.40;23.00;;;;;6.03;65.19;102786.75;4840962;29;45667;-50
2022/01/23 13:27:28;;;;;;;;;21.80;16.40;;;;;6.13;65.64;102772.34;4781543;29;45551;-49
2022/01/23 13:32:28;;;;;;;;;24.60;21.80;;;;;6.13;65.50;102756.00;4868875;29;46426;-49
2022/01/23 13:35:03;;;;;;;;;18.00;15.80;;;;;6.07;64.89;102763.69;4857118;29;45490;-51
2022/01/23 13:37:31;;;;;;;;;19.40;17.80;;;;;6.03;64.96;102756.75;4855998;29;45472;-50
2022/01/23 13:40:07;;;;;;;;;23.60;21.40;;;;;6.12;64.69;102752.38;4839381;29;45476;-49
2022/01/23 14:02:26;;;;;;;;;19.60;17.80;;;;;6.22;64.77;102720.59;4875747;29;45533;-51
2022/01/23 14:05:03;;;;;;;;;23.00;19.00;;;;;6.28;64.70;102721.91;4860232;29;45512;-51
2022/01/23 14:07:30;;;;;;;;;24.60;19.60;;;;;6.28;65.04;102721.91;4873866;29;45432;-54
2022/01/23 14:09:57;;;;;;;;;18.20;15.60;;;;;6.26;64.87;102720.31;4852290;29;46401;-53
2022/01/23 14:12:23;;;;;;;;;24.00;19.40;;;;;6.22;64.70;102715.16;4855745;29;45885;-50
2022/01/23 14:14:49;;;;;;;;;23.40;17.80;;;;;6.16;65.30;102698.44;4860108;29;45553;-52
2022/01/23 14:17:15;;;;;;;;;23.80;17.20;;;;;6.23;64.71;102708.69;4856617;29;45479;-53
2022/01/23 14:19:41;;;;;;;;;35.40;24.20;;;;;6.20;64.59;102708.09;4853440;29;45502;-54
2022/01/23 14:22:06;;;;;;;;;22.00;20.75;;;;;6.24;65.14;102704.97;4857046;29;45684;-52
2022/01/23 14:24:34;;;;;;;;;32.00;24.75;;;;;6.16;64.69;102685.69;4839414;29;46323;-50
2022/01/23 14:27:01;;;;;;;;;26.80;23.80;;;;;6.30;65.40;102708.16;4858821;29;45430;-51
2022/01/23 14:29:28;;;;;;;;;29.20;24.00;;;;;6.30;64.72;102705.44;4858801;29;45521;-53
2022/01/23 14:32:13;;;;;;;;;23.20;20.00;;;;;6.30;64.94;102709.00;4874103;29;45664;-55
2022/01/23 14:34:41;;;;;;;;;23.60;21.00;;;;;6.06;64.43;102663.81;4807015;29;45605;-58
2022/01/23 14:37:06;;;;;;;;;20.60;16.80;;;;;6.20;64.51;102692.59;4822282;29;45926;-53
2022/01/23 14:39:33;;;;;;;;;25.75;17.00;;;;;6.16;64.77;102679.38;4838013;29;45785;-51
2022/01/23 14:42:12;;;;;;;;;23.80;19.00;;;;;6.29;65.14;102701.81;4827039;29;45591;-53
2022/01/23 14:44:38;;;;;;;;;22.40;19.40;;;;;6.33;65.11;102702.41;4822581;29;45667;-55
2022/01/23 14:47:04;;;;;;;;;16.75;16.25;;;;;6.29;64.49;102698.25;4860968;29;45860;-57
2022/01/23 14:49:31;;;;;;;;;29.50;22.00;;;;;6.01;63.62;102657.88;4857706;29;45507;-49
2022/01/23 14:51:58;;;;;;;;;23.20;16.20;;;;;6.10;63.61;102675.31;4827062;29;45873;-51
2022/01/23 14:54:25;;;;;;;;;25.20;21.80;;;;;6.14;64.42;102675.91;4860295;29;46509;-55
2022/01/23 14:56:51;;;;;;;;;23.20;17.60;;;;;6.18;64.21;102671.91;4828035;29;45398;-54